sensor_id;sensor_type;location;lat;lon;timestamp;P1;durP1;ratioP1;P2;durP2;ratioP2
14118;SDS011;7138;49.246;9.100;2023-08-08T00:00:15;4.97;;;1.23;;
14118;SDS011;7138;49.246;9.100;2023-08-08T00:02:41;2.30;;;1.08;;
14118;SDS011;7138;49.246;9.100;2023-08-08T00:05:07;2.80;;;1.00;;
14118;SDS011;7138;49.246;9.100;2023-08-08T00:07:34;3.60;;;1.00;;
14118;SDS011;7138;49.246;9.100;2023-08-08T00:09:59;4.78;;;1.10;;
14118;SDS011;7138;49.246;9.100;2023-08-08T00:12:25;3.63;;;1.10;;
14118;SDS011;7138;49.246;9.100;2023-08-08T00:14:51;3.83;;;1.23;;
14118;SDS011;7138;49.246;9.100;2023-08-08T00:17:18;3.85;;;1.00;;
14118;SDS011;7138;49.246;9.100;2023-08-08T00:19:44;5.10;;;1.08;;
14118;SDS011;7138;49.246;9.100;2023-08-08T00:22:10;3.38;;;0.98;;
14118;SDS011;7138;49.246;9.100;2023-08-08T00:24:36;2.65;;;1.00;;
14118;SDS011;7138;49.246;9.100;2023-08-08T00:27:02;4.18;;;1.23;;
14118;SDS011;7138;49.246;9.100;2023-08-08T00:29:28;3.78;;;1.00;;
14118;SDS011;7138;49.246;9.100;2023-08-08T00:31:54;5.72;;;1.27;;
14118;SDS011;7138;49.246;9.100;2023-08-08T00:34:22;2.63;;;1.10;;
14118;SDS011;7138;49.246;9.100;2023-08-08T00:36:48;3.00;;;1.15;;
14118;SDS011;7138;49.246;9.100;2023-08-08T00:39:13;4.05;;;1.15;;
14118;SDS011;7138;49.246;9.100;2023-08-08T00:41:39;3.55;;;1.00;;
14118;SDS011;7138;49.246;9.100;2023-08-08T00:44:05;6.63;;;1.13;;
14118;SDS011;7138;49.246;9.100;2023-08-08T00:46:31;6.57;;;1.20;;
14118;SDS011;7138;49.246;9.100;2023-08-08T00:48:57;7.07;;;1.35;;
14118;SDS011;7138;49.246;9.100;2023-08-08T00:51:24;3.17;;;0.98;;
14118;SDS011;7138;49.246;9.100;2023-08-08T00:53:50;2.60;;;1.17;;
14118;SDS011;7138;49.246;9.100;2023-08-08T00:56:18;3.47;;;1.05;;
14118;SDS011;7138;49.246;9.100;2023-08-08T00:58:44;3.60;;;1.38;;
14118;SDS011;7138;49.246;9.100;2023-08-08T01:01:11;4.25;;;1.20;;
14118;SDS011;7138;49.246;9.100;2023-08-08T01:03:37;3.92;;;1.00;;
14118;SDS011;7138;49.246;9.100;2023-08-08T01:06:03;2.50;;;1.10;;
14118;SDS011;7138;49.246;9.100;2023-08-08T01:08:42;3.13;;;1.10;;
14118;SDS011;7138;49.246;9.100;2023-08-08T01:11:16;3.80;;;1.35;;
14118;SDS011;7138;49.246;9.100;2023-08-08T01:13:42;11.18;;;1.48;;
14118;SDS011;7138;49.246;9.100;2023-08-08T01:16:11;2.58;;;1.20;;
14118;SDS011;7138;49.246;9.100;2023-08-08T01:18:38;3.50;;;1.02;;
14118;SDS011;7138;49.246;9.100;2023-08-08T01:21:05;6.90;;;1.42;;
14118;SDS011;7138;49.246;9.100;2023-08-08T01:23:39;3.53;;;1.05;;
14118;SDS011;7138;49.246;9.100;2023-08-08T01:26:16;2.65;;;0.98;;
14118;SDS011;7138;49.246;9.100;2023-08-08T01:28:43;3.60;;;1.23;;
14118;SDS011;7138;49.246;9.100;2023-08-08T01:31:09;2.80;;;1.30;;
14118;SDS011;7138;49.246;9.100;2023-08-08T01:33:36;3.55;;;1.05;;
14118;SDS011;7138;49.246;9.100;2023-08-08T01:36:03;2.47;;;1.05;;
14118;SDS011;7138;49.246;9.100;2023-08-08T01:38:40;6.72;;;1.30;;
14118;SDS011;7138;49.246;9.100;2023-08-08T01:41:09;3.42;;;1.05;;
14118;SDS011;7138;49.246;9.100;2023-08-08T01:43:36;2.47;;;0.90;;
14118;SDS011;7138;49.246;9.100;2023-08-08T01:46:04;2.37;;;0.90;;
14118;SDS011;7138;49.246;9.100;2023-08-08T01:48:31;2.80;;;1.00;;
14118;SDS011;7138;49.246;9.100;2023-08-08T01:50:57;3.17;;;1.15;;
14118;SDS011;7138;49.246;9.100;2023-08-08T01:53:23;3.15;;;1.05;;
14118;SDS011;7138;49.246;9.100;2023-08-08T01:55:50;4.10;;;1.10;;
14118;SDS011;7138;49.246;9.100;2023-08-08T01:58:17;4.07;;;1.10;;
14118;SDS011;7138;49.246;9.100;2023-08-08T02:00:44;4.55;;;1.17;;
14118;SDS011;7138;49.246;9.100;2023-08-08T02:03:12;3.28;;;1.00;;
14118;SDS011;7138;49.246;9.100;2023-08-08T02:05:40;4.15;;;1.30;;
14118;SDS011;7138;49.246;9.100;2023-08-08T02:08:06;2.33;;;0.93;;
14118;SDS011;7138;49.246;9.100;2023-08-08T02:10:32;2.45;;;1.10;;
14118;SDS011;7138;49.246;9.100;2023-08-08T02:12:58;4.97;;;1.35;;
14118;SDS011;7138;49.246;9.100;2023-08-08T02:15:24;2.78;;;1.00;;
14118;SDS011;7138;49.246;9.100;2023-08-08T02:17:51;4.07;;;1.35;;
14118;SDS011;7138;49.246;9.100;2023-08-08T02:20:17;3.08;;;1.23;;
14118;SDS011;7138;49.246;9.100;2023-08-08T02:22:43;2.47;;;1.20;;
14118;SDS011;7138;49.246;9.100;2023-08-08T02:25:09;5.13;;;1.25;;
14118;SDS011;7138;49.246;9.100;2023-08-08T02:27:35;4.25;;;1.08;;
14118;SDS011;7138;49.246;9.100;2023-08-08T02:30:01;3.47;;;1.20;;
14118;SDS011;7138;49.246;9.100;2023-08-08T02:32:27;2.80;;;1.02;;
14118;SDS011;7138;49.246;9.100;2023-08-08T02:34:55;2.70;;;1.05;;
14118;SDS011;7138;49.246;9.100;2023-08-08T02:37:21;2.15;;;1.00;;
14118;SDS011;7138;49.246;9.100;2023-08-08T02:39:46;3.03;;;1.00;;
14118;SDS011;7138;49.246;9.100;2023-08-08T02:42:12;4.50;;;1.17;;
14118;SDS011;7138;49.246;9.100;2023-08-08T02:44:38;2.60;;;0.98;;
14118;SDS011;7138;49.246;9.100;2023-08-08T02:47:04;5.25;;;1.20;;
14118;SDS011;7138;49.246;9.100;2023-08-08T02:49:30;3.35;;;1.15;;
14118;SDS011;7138;49.246;9.100;2023-08-08T02:51:59;3.55;;;1.10;;
14118;SDS011;7138;49.246;9.100;2023-08-08T02:54:25;6.65;;;1.30;;
14118;SDS011;7138;49.246;9.100;2023-08-08T02:56:51;3.28;;;1.13;;
14118;SDS011;7138;49.246;9.100;2023-08-08T02:59:17;2.63;;;1.00;;
14118;SDS011;7138;49.246;9.100;2023-08-08T03:01:43;5.03;;;1.25;;
14118;SDS011;7138;49.246;9.100;2023-08-08T03:04:09;3.08;;;1.38;;
14118;SDS011;7138;49.246;9.100;2023-08-08T03:06:35;5.47;;;1.67;;
14118;SDS011;7138;49.246;9.100;2023-08-08T03:09:02;3.25;;;1.25;;
14118;SDS011;7138;49.246;9.100;2023-08-08T03:11:28;2.72;;;0.93;;
14118;SDS011;7138;49.246;9.100;2023-08-08T03:13:54;3.83;;;1.23;;
14118;SDS011;7138;49.246;9.100;2023-08-08T03:16:19;5.05;;;1.20;;
14118;SDS011;7138;49.246;9.100;2023-08-08T03:18:45;5.85;;;1.58;;
14118;SDS011;7138;49.246;9.100;2023-08-08T03:21:11;3.80;;;1.77;;
14118;SDS011;7138;49.246;9.100;2023-08-08T03:23:37;2.97;;;1.20;;
14118;SDS011;7138;49.246;9.100;2023-08-08T03:26:04;2.88;;;1.30;;
14118;SDS011;7138;49.246;9.100;2023-08-08T03:28:30;5.90;;;1.90;;
14118;SDS011;7138;49.246;9.100;2023-08-08T03:30:56;3.22;;;1.65;;
14118;SDS011;7138;49.246;9.100;2023-08-08T03:33:22;3.67;;;1.30;;
14118;SDS011;7138;49.246;9.100;2023-08-08T03:35:48;3.15;;;1.23;;
14118;SDS011;7138;49.246;9.100;2023-08-08T03:38:13;3.40;;;1.63;;
14118;SDS011;7138;49.246;9.100;2023-08-08T03:40:39;4.32;;;1.40;;
14118;SDS011;7138;49.246;9.100;2023-08-08T03:43:07;3.10;;;1.40;;
14118;SDS011;7138;49.246;9.100;2023-08-08T03:45:32;3.63;;;1.30;;
14118;SDS011;7138;49.246;9.100;2023-08-08T03:47:58;3.15;;;1.35;;
14118;SDS011;7138;49.246;9.100;2023-08-08T03:50:24;3.63;;;1.10;;
14118;SDS011;7138;49.246;9.100;2023-08-08T03:52:50;4.75;;;1.33;;
14118;SDS011;7138;49.246;9.100;2023-08-08T03:55:16;4.30;;;1.42;;
14118;SDS011;7138;49.246;9.100;2023-08-08T03:57:42;5.13;;;2.00;;
14118;SDS011;7138;49.246;9.100;2023-08-08T04:00:09;4.82;;;1.88;;
14118;SDS011;7138;49.246;9.100;2023-08-08T04:02:36;4.63;;;1.48;;
14118;SDS011;7138;49.246;9.100;2023-08-08T04:05:02;3.10;;;1.20;;
14118;SDS011;7138;49.246;9.100;2023-08-08T04:07:29;4.03;;;1.75;;
14118;SDS011;7138;49.246;9.100;2023-08-08T04:09:55;3.90;;;1.60;;
14118;SDS011;7138;49.246;9.100;2023-08-08T04:12:21;4.00;;;1.40;;
14118;SDS011;7138;49.246;9.100;2023-08-08T04:14:47;4.07;;;1.33;;
14118;SDS011;7138;49.246;9.100;2023-08-08T04:17:14;4.60;;;1.25;;
14118;SDS011;7138;49.246;9.100;2023-08-08T04:19:40;6.28;;;1.63;;
14118;SDS011;7138;49.246;9.100;2023-08-08T04:22:06;3.95;;;1.60;;
14118;SDS011;7138;49.246;9.100;2023-08-08T04:24:31;3.40;;;1.40;;
14118;SDS011;7138;49.246;9.100;2023-08-08T04:26:57;3.42;;;1.25;;
14118;SDS011;7138;49.246;9.100;2023-08-08T04:29:23;4.22;;;1.23;;
14118;SDS011;7138;49.246;9.100;2023-08-08T04:31:49;3.13;;;1.63;;
14118;SDS011;7138;49.246;9.100;2023-08-08T04:34:16;5.93;;;2.10;;
14118;SDS011;7138;49.246;9.100;2023-08-08T04:36:42;3.33;;;1.40;;
14118;SDS011;7138;49.246;9.100;2023-08-08T04:39:08;3.67;;;1.42;;
14118;SDS011;7138;49.246;9.100;2023-08-08T04:41:34;5.15;;;1.50;;
14118;SDS011;7138;49.246;9.100;2023-08-08T04:43:59;4.30;;;1.35;;
14118;SDS011;7138;49.246;9.100;2023-08-08T04:46:25;3.60;;;1.38;;
14118;SDS011;7138;49.246;9.100;2023-08-08T04:48:51;2.85;;;1.35;;
14118;SDS011;7138;49.246;9.100;2023-08-08T04:51:18;4.10;;;1.23;;
14118;SDS011;7138;49.246;9.100;2023-08-08T04:53:44;3.58;;;1.40;;
14118;SDS011;7138;49.246;9.100;2023-08-08T04:56:10;3.42;;;1.40;;
14118;SDS011;7138;49.246;9.100;2023-08-08T04:58:36;4.55;;;1.50;;
14118;SDS011;7138;49.246;9.100;2023-08-08T05:01:01;3.83;;;1.65;;
14118;SDS011;7138;49.246;9.100;2023-08-08T05:03:27;3.80;;;1.30;;
14118;SDS011;7138;49.246;9.100;2023-08-08T05:05:53;4.95;;;1.33;;
14118;SDS011;7138;49.246;9.100;2023-08-08T05:08:20;4.20;;;1.35;;
14118;SDS011;7138;49.246;9.100;2023-08-08T05:10:46;3.20;;;1.23;;
14118;SDS011;7138;49.246;9.100;2023-08-08T05:13:12;3.95;;;1.55;;
14118;SDS011;7138;49.246;9.100;2023-08-08T05:15:38;3.33;;;1.17;;
14118;SDS011;7138;49.246;9.100;2023-08-08T05:18:04;2.95;;;1.33;;
14118;SDS011;7138;49.246;9.100;2023-08-08T05:20:30;4.32;;;1.52;;
14118;SDS011;7138;49.246;9.100;2023-08-08T05:22:56;4.78;;;1.50;;
14118;SDS011;7138;49.246;9.100;2023-08-08T05:25:23;4.20;;;1.23;;
14118;SDS011;7138;49.246;9.100;2023-08-08T05:27:49;3.25;;;1.20;;
14118;SDS011;7138;49.246;9.100;2023-08-08T05:30:15;2.80;;;1.05;;
14118;SDS011;7138;49.246;9.100;2023-08-08T05:32:41;3.10;;;1.30;;
14118;SDS011;7138;49.246;9.100;2023-08-08T05:35:07;2.88;;;1.00;;
14118;SDS011;7138;49.246;9.100;2023-08-08T05:37:33;3.45;;;1.20;;
14118;SDS011;7138;49.246;9.100;2023-08-08T05:39:59;3.45;;;1.10;;
14118;SDS011;7138;49.246;9.100;2023-08-08T05:42:27;5.35;;;1.58;;
14118;SDS011;7138;49.246;9.100;2023-08-08T05:47:20;3.95;;;1.40;;
14118;SDS011;7138;49.246;9.100;2023-08-08T05:49:46;3.95;;;1.23;;
14118;SDS011;7138;49.246;9.100;2023-08-08T05:52:12;5.10;;;1.10;;
14118;SDS011;7138;49.246;9.100;2023-08-08T05:54:38;3.67;;;1.10;;
14118;SDS011;7138;49.246;9.100;2023-08-08T05:57:04;3.10;;;1.10;;
14118;SDS011;7138;49.246;9.100;2023-08-08T05:59:32;3.10;;;1.00;;
14118;SDS011;7138;49.246;9.100;2023-08-08T06:01:58;3.17;;;1.02;;
14118;SDS011;7138;49.246;9.100;2023-08-08T06:04:24;5.20;;;1.40;;
14118;SDS011;7138;49.246;9.100;2023-08-08T06:06:53;3.25;;;1.15;;
14118;SDS011;7138;49.246;9.100;2023-08-08T06:09:19;2.58;;;1.00;;
14118;SDS011;7138;49.246;9.100;2023-08-08T06:11:44;4.20;;;1.20;;
14118;SDS011;7138;49.246;9.100;2023-08-08T06:14:10;2.65;;;0.93;;
14118;SDS011;7138;49.246;9.100;2023-08-08T06:16:37;3.85;;;1.02;;
14118;SDS011;7138;49.246;9.100;2023-08-08T06:19:03;6.28;;;1.27;;
14118;SDS011;7138;49.246;9.100;2023-08-08T06:21:30;4.13;;;1.05;;
14118;SDS011;7138;49.246;9.100;2023-08-08T06:23:56;3.30;;;1.00;;
14118;SDS011;7138;49.246;9.100;2023-08-08T06:26:22;2.17;;;0.90;;
14118;SDS011;7138;49.246;9.100;2023-08-08T06:28:48;4.75;;;1.10;;
14118;SDS011;7138;49.246;9.100;2023-08-08T06:31:14;2.95;;;0.98;;
14118;SDS011;7138;49.246;9.100;2023-08-08T06:33:41;3.97;;;1.05;;
14118;SDS011;7138;49.246;9.100;2023-08-08T06:36:07;7.10;;;1.02;;
14118;SDS011;7138;49.246;9.100;2023-08-08T06:38:32;2.50;;;0.90;;
14118;SDS011;7138;49.246;9.100;2023-08-08T06:40:59;5.00;;;1.73;;
14118;SDS011;7138;49.246;9.100;2023-08-08T06:43:25;5.35;;;1.13;;
14118;SDS011;7138;49.246;9.100;2023-08-08T06:45:51;4.95;;;1.00;;
14118;SDS011;7138;49.246;9.100;2023-08-08T06:48:17;2.70;;;0.98;;
14118;SDS011;7138;49.246;9.100;2023-08-08T06:50:44;2.47;;;0.90;;
14118;SDS011;7138;49.246;9.100;2023-08-08T06:53:10;3.08;;;1.00;;
14118;SDS011;7138;49.246;9.100;2023-08-08T06:55:36;3.15;;;1.05;;
14118;SDS011;7138;49.246;9.100;2023-08-08T06:58:02;4.40;;;1.25;;
14118;SDS011;7138;49.246;9.100;2023-08-08T07:00:28;3.95;;;0.90;;
14118;SDS011;7138;49.246;9.100;2023-08-08T07:02:54;3.72;;;1.00;;
14118;SDS011;7138;49.246;9.100;2023-08-08T07:05:20;3.50;;;1.10;;
14118;SDS011;7138;49.246;9.100;2023-08-08T07:07:49;4.65;;;1.00;;
14118;SDS011;7138;49.246;9.100;2023-08-08T07:10:15;2.47;;;0.90;;
14118;SDS011;7138;49.246;9.100;2023-08-08T07:12:41;3.60;;;1.00;;
14118;SDS011;7138;49.246;9.100;2023-08-08T07:15:07;3.80;;;1.10;;
14118;SDS011;7138;49.246;9.100;2023-08-08T07:17:34;2.72;;;1.02;;
14118;SDS011;7138;49.246;9.100;2023-08-08T07:19:59;4.47;;;1.10;;
14118;SDS011;7138;49.246;9.100;2023-08-08T07:22:25;2.90;;;0.93;;
14118;SDS011;7138;49.246;9.100;2023-08-08T07:24:52;6.68;;;1.35;;
14118;SDS011;7138;49.246;9.100;2023-08-08T07:27:18;2.50;;;0.80;;
14118;SDS011;7138;49.246;9.100;2023-08-08T07:29:44;3.78;;;1.15;;
14118;SDS011;7138;49.246;9.100;2023-08-08T07:32:10;4.45;;;0.98;;
14118;SDS011;7138;49.246;9.100;2023-08-08T07:34:36;4.25;;;0.90;;
14118;SDS011;7138;49.246;9.100;2023-08-08T07:37:02;2.78;;;0.93;;
14118;SDS011;7138;49.246;9.100;2023-08-08T07:39:28;3.42;;;0.70;;
14118;SDS011;7138;49.246;9.100;2023-08-08T07:41:56;3.03;;;1.10;;
14118;SDS011;7138;49.246;9.100;2023-08-08T07:44:22;2.65;;;0.80;;
14118;SDS011;7138;49.246;9.100;2023-08-08T07:46:48;2.38;;;0.80;;
14118;SDS011;7138;49.246;9.100;2023-08-08T07:49:14;3.95;;;0.90;;
14118;SDS011;7138;49.246;9.100;2023-08-08T07:51:40;3.30;;;1.42;;
14118;SDS011;7138;49.246;9.100;2023-08-08T07:54:05;5.82;;;0.93;;
14118;SDS011;7138;49.246;9.100;2023-08-08T07:56:33;3.92;;;0.90;;
14118;SDS011;7138;49.246;9.100;2023-08-08T07:59:01;3.08;;;1.00;;
14118;SDS011;7138;49.246;9.100;2023-08-08T08:01:27;2.63;;;0.80;;
14118;SDS011;7138;49.246;9.100;2023-08-08T08:03:53;3.10;;;0.80;;
14118;SDS011;7138;49.246;9.100;2023-08-08T08:06:19;5.20;;;0.82;;
14118;SDS011;7138;49.246;9.100;2023-08-08T08:08:45;3.00;;;0.85;;
14118;SDS011;7138;49.246;9.100;2023-08-08T08:11:11;2.72;;;0.80;;
14118;SDS011;7138;49.246;9.100;2023-08-08T08:13:38;4.38;;;0.93;;
14118;SDS011;7138;49.246;9.100;2023-08-08T08:16:05;2.97;;;0.90;;
14118;SDS011;7138;49.246;9.100;2023-08-08T08:18:31;3.70;;;0.80;;
14118;SDS011;7138;49.246;9.100;2023-08-08T08:20:58;5.68;;;0.90;;
14118;SDS011;7138;49.246;9.100;2023-08-08T08:23:25;3.30;;;0.80;;
14118;SDS011;7138;49.246;9.100;2023-08-08T08:25:50;3.25;;;0.90;;
14118;SDS011;7138;49.246;9.100;2023-08-08T08:28:16;3.72;;;0.90;;
14118;SDS011;7138;49.246;9.100;2023-08-08T08:30:42;2.22;;;0.65;;
14118;SDS011;7138;49.246;9.100;2023-08-08T08:33:10;3.67;;;0.98;;
14118;SDS011;7138;49.246;9.100;2023-08-08T08:35:36;2.10;;;0.77;;
14118;SDS011;7138;49.246;9.100;2023-08-08T08:38:03;3.63;;;0.95;;
14118;SDS011;7138;49.246;9.100;2023-08-08T08:40:29;2.63;;;0.70;;
14118;SDS011;7138;49.246;9.100;2023-08-08T08:43:03;3.53;;;0.77;;
14118;SDS011;7138;49.246;9.100;2023-08-08T08:45:31;3.72;;;0.77;;
14118;SDS011;7138;49.246;9.100;2023-08-08T08:48:01;5.85;;;1.02;;
14118;SDS011;7138;49.246;9.100;2023-08-08T08:50:31;3.50;;;0.80;;
14118;SDS011;7138;49.246;9.100;2023-08-08T08:52:59;2.72;;;0.85;;
14118;SDS011;7138;49.246;9.100;2023-08-08T08:55:26;3.33;;;0.88;;
14118;SDS011;7138;49.246;9.100;2023-08-08T08:57:53;2.88;;;0.90;;
14118;SDS011;7138;49.246;9.100;2023-08-08T09:00:20;3.13;;;0.90;;
14118;SDS011;7138;49.246;9.100;2023-08-08T09:02:47;2.40;;;0.70;;
14118;SDS011;7138;49.246;9.100;2023-08-08T09:05:13;2.83;;;0.90;;
14118;SDS011;7138;49.246;9.100;2023-08-08T09:07:47;3.25;;;0.80;;
14118;SDS011;7138;49.246;9.100;2023-08-08T09:10:14;2.38;;;0.85;;
14118;SDS011;7138;49.246;9.100;2023-08-08T09:12:41;3.50;;;0.60;;
14118;SDS011;7138;49.246;9.100;2023-08-08T09:15:08;2.22;;;0.80;;
14118;SDS011;7138;49.246;9.100;2023-08-08T09:17:35;2.95;;;1.00;;
14118;SDS011;7138;49.246;9.100;2023-08-08T09:20:06;5.47;;;1.10;;
14118;SDS011;7138;49.246;9.100;2023-08-08T09:22:35;2.75;;;0.60;;
14118;SDS011;7138;49.246;9.100;2023-08-08T09:25:04;2.75;;;0.82;;
14118;SDS011;7138;49.246;9.100;2023-08-08T09:27:31;2.10;;;0.80;;
14118;SDS011;7138;49.246;9.100;2023-08-08T09:29:57;4.75;;;0.70;;
14118;SDS011;7138;49.246;9.100;2023-08-08T09:32:27;4.35;;;0.90;;
14118;SDS011;7138;49.246;9.100;2023-08-08T09:34:55;5.78;;;1.10;;
14118;SDS011;7138;49.246;9.100;2023-08-08T09:37:21;2.53;;;0.70;;
14118;SDS011;7138;49.246;9.100;2023-08-08T09:39:55;3.47;;;0.80;;
14118;SDS011;7138;49.246;9.100;2023-08-08T09:42:23;5.22;;;1.10;;
14118;SDS011;7138;49.246;9.100;2023-08-08T09:44:50;2.58;;;0.85;;
14118;SDS011;7138;49.246;9.100;2023-08-08T09:47:16;2.78;;;0.73;;
14118;SDS011;7138;49.246;9.100;2023-08-08T09:49:42;2.95;;;0.90;;
14118;SDS011;7138;49.246;9.100;2023-08-08T09:52:09;3.55;;;0.90;;
14118;SDS011;7138;49.246;9.100;2023-08-08T09:54:36;5.75;;;1.00;;
14118;SDS011;7138;49.246;9.100;2023-08-08T09:57:04;3.60;;;1.00;;
14118;SDS011;7138;49.246;9.100;2023-08-08T09:59:33;2.25;;;0.80;;
14118;SDS011;7138;49.246;9.100;2023-08-08T10:01:59;4.15;;;1.13;;
14118;SDS011;7138;49.246;9.100;2023-08-08T10:04:27;3.38;;;0.90;;
14118;SDS011;7138;49.246;9.100;2023-08-08T10:06:53;4.68;;;1.10;;
14118;SDS011;7138;49.246;9.100;2023-08-08T10:09:19;3.25;;;0.80;;
14118;SDS011;7138;49.246;9.100;2023-08-08T10:11:46;3.03;;;0.80;;
14118;SDS011;7138;49.246;9.100;2023-08-08T10:14:13;2.30;;;0.73;;
14118;SDS011;7138;49.246;9.100;2023-08-08T10:16:42;1.90;;;0.70;;
14118;SDS011;7138;49.246;9.100;2023-08-08T10:19:09;4.17;;;1.10;;
14118;SDS011;7138;49.246;9.100;2023-08-08T10:21:36;3.22;;;1.00;;
14118;SDS011;7138;49.246;9.100;2023-08-08T10:24:09;3.17;;;0.88;;
14118;SDS011;7138;49.246;9.100;2023-08-08T10:26:50;2.92;;;0.70;;
14118;SDS011;7138;49.246;9.100;2023-08-08T10:29:17;2.25;;;0.80;;
14118;SDS011;7138;49.246;9.100;2023-08-08T10:31:52;4.72;;;1.20;;
14118;SDS011;7138;49.246;9.100;2023-08-08T10:34:19;3.75;;;0.98;;
14118;SDS011;7138;49.246;9.100;2023-08-08T10:36:50;2.40;;;0.85;;
14118;SDS011;7138;49.246;9.100;2023-08-08T10:39:17;8.25;;;1.10;;
14118;SDS011;7138;49.246;9.100;2023-08-08T10:41:46;3.17;;;1.05;;
14118;SDS011;7138;49.246;9.100;2023-08-08T10:44:20;4.13;;;1.17;;
14118;SDS011;7138;49.246;9.100;2023-08-08T10:46:48;4.97;;;0.80;;
14118;SDS011;7138;49.246;9.100;2023-08-08T10:49:17;2.42;;;0.70;;
14118;SDS011;7138;49.246;9.100;2023-08-08T10:51:44;2.90;;;1.10;;
14118;SDS011;7138;49.246;9.100;2023-08-08T10:54:13;3.00;;;0.90;;
14118;SDS011;7138;49.246;9.100;2023-08-08T10:56:47;4.13;;;1.13;;
14118;SDS011;7138;49.246;9.100;2023-08-08T10:59:14;4.00;;;0.90;;
14118;SDS011;7138;49.246;9.100;2023-08-08T11:01:44;4.40;;;1.27;;
14118;SDS011;7138;49.246;9.100;2023-08-08T11:04:13;3.92;;;0.80;;
14118;SDS011;7138;49.246;9.100;2023-08-08T11:06:41;3.05;;;1.00;;
14118;SDS011;7138;49.246;9.100;2023-08-08T11:09:08;4.53;;;1.00;;
14118;SDS011;7138;49.246;9.100;2023-08-08T11:11:35;4.57;;;0.77;;
14118;SDS011;7138;49.246;9.100;2023-08-08T11:14:10;4.18;;;0.98;;
14118;SDS011;7138;49.246;9.100;2023-08-08T11:16:37;2.70;;;0.80;;
14118;SDS011;7138;49.246;9.100;2023-08-08T11:19:03;2.58;;;1.08;;
14118;SDS011;7138;49.246;9.100;2023-08-08T11:21:34;3.67;;;0.80;;
14118;SDS011;7138;49.246;9.100;2023-08-08T11:24:01;3.03;;;0.90;;
14118;SDS011;7138;49.246;9.100;2023-08-08T11:26:28;3.50;;;0.95;;
14118;SDS011;7138;49.246;9.100;2023-08-08T11:28:57;2.08;;;0.80;;
14118;SDS011;7138;49.246;9.100;2023-08-08T11:31:24;2.33;;;0.70;;
14118;SDS011;7138;49.246;9.100;2023-08-08T11:33:50;2.85;;;1.00;;
14118;SDS011;7138;49.246;9.100;2023-08-08T11:36:17;2.50;;;0.70;;
14118;SDS011;7138;49.246;9.100;2023-08-08T11:38:45;2.85;;;0.70;;
14118;SDS011;7138;49.246;9.100;2023-08-08T11:41:12;3.92;;;0.77;;
14118;SDS011;7138;49.246;9.100;2023-08-08T11:43:39;3.75;;;0.90;;
14118;SDS011;7138;49.246;9.100;2023-08-08T11:46:08;3.58;;;0.90;;
14118;SDS011;7138;49.246;9.100;2023-08-08T11:48:34;2.10;;;0.70;;
14118;SDS011;7138;49.246;9.100;2023-08-08T11:51:02;1.90;;;0.70;;
14118;SDS011;7138;49.246;9.100;2023-08-08T11:53:29;2.40;;;0.95;;
14118;SDS011;7138;49.246;9.100;2023-08-08T11:55:56;3.03;;;0.80;;
14118;SDS011;7138;49.246;9.100;2023-08-08T11:58:23;3.38;;;0.80;;
14118;SDS011;7138;49.246;9.100;2023-08-08T12:00:50;2.92;;;1.10;;
14118;SDS011;7138;49.246;9.100;2023-08-08T12:03:17;2.25;;;0.80;;
14118;SDS011;7138;49.246;9.100;2023-08-08T12:05:44;2.30;;;1.00;;
14118;SDS011;7138;49.246;9.100;2023-08-08T12:08:11;3.55;;;0.98;;
14118;SDS011;7138;49.246;9.100;2023-08-08T12:10:37;2.30;;;0.60;;
14118;SDS011;7138;49.246;9.100;2023-08-08T12:13:04;2.53;;;0.77;;
14118;SDS011;7138;49.246;9.100;2023-08-08T12:15:35;3.83;;;0.80;;
14118;SDS011;7138;49.246;9.100;2023-08-08T12:18:01;2.63;;;0.88;;
14118;SDS011;7138;49.246;9.100;2023-08-08T12:20:28;2.45;;;0.80;;
14118;SDS011;7138;49.246;9.100;2023-08-08T12:22:56;4.78;;;0.90;;
14118;SDS011;7138;49.246;9.100;2023-08-08T12:25:22;3.08;;;0.80;;
14118;SDS011;7138;49.246;9.100;2023-08-08T12:27:47;3.20;;;0.77;;
14118;SDS011;7138;49.246;9.100;2023-08-08T12:30:16;2.40;;;0.77;;
14118;SDS011;7138;49.246;9.100;2023-08-08T12:32:42;2.60;;;0.70;;
14118;SDS011;7138;49.246;9.100;2023-08-08T12:35:08;2.58;;;0.80;;
14118;SDS011;7138;49.246;9.100;2023-08-08T12:37:33;1.83;;;0.70;;
14118;SDS011;7138;49.246;9.100;2023-08-08T12:39:59;3.30;;;1.23;;
14118;SDS011;7138;49.246;9.100;2023-08-08T12:42:27;2.83;;;0.80;;
14118;SDS011;7138;49.246;9.100;2023-08-08T12:44:53;2.47;;;0.88;;
14118;SDS011;7138;49.246;9.100;2023-08-08T12:47:20;2.72;;;0.60;;
14118;SDS011;7138;49.246;9.100;2023-08-08T12:49:46;3.88;;;0.60;;
14118;SDS011;7138;49.246;9.100;2023-08-08T12:52:12;2.30;;;0.70;;
14118;SDS011;7138;49.246;9.100;2023-08-08T12:54:38;3.42;;;0.70;;
14118;SDS011;7138;49.246;9.100;2023-08-08T12:57:04;3.80;;;0.80;;
14118;SDS011;7138;49.246;9.100;2023-08-08T12:59:30;2.35;;;0.60;;
14118;SDS011;7138;49.246;9.100;2023-08-08T13:01:56;6.00;;;0.65;;
14118;SDS011;7138;49.246;9.100;2023-08-08T13:04:23;3.28;;;0.75;;
14118;SDS011;7138;49.246;9.100;2023-08-08T13:06:50;2.58;;;0.80;;
14118;SDS011;7138;49.246;9.100;2023-08-08T13:09:16;2.88;;;0.70;;
14118;SDS011;7138;49.246;9.100;2023-08-08T13:11:44;3.75;;;1.00;;
14118;SDS011;7138;49.246;9.100;2023-08-08T13:14:10;2.80;;;0.70;;
14118;SDS011;7138;49.246;9.100;2023-08-08T13:16:36;2.08;;;0.50;;
14118;SDS011;7138;49.246;9.100;2023-08-08T13:19:02;2.42;;;0.73;;
14118;SDS011;7138;49.246;9.100;2023-08-08T13:21:30;3.20;;;0.70;;
14118;SDS011;7138;49.246;9.100;2023-08-08T13:23:56;2.50;;;0.70;;
14118;SDS011;7138;49.246;9.100;2023-08-08T13:26:22;4.32;;;0.80;;
14118;SDS011;7138;49.246;9.100;2023-08-08T13:28:48;2.22;;;0.63;;
14118;SDS011;7138;49.246;9.100;2023-08-08T13:31:14;2.88;;;1.00;;
14118;SDS011;7138;49.246;9.100;2023-08-08T13:33:40;1.95;;;0.73;;
14118;SDS011;7138;49.246;9.100;2023-08-08T13:36:07;2.50;;;0.80;;
14118;SDS011;7138;49.246;9.100;2023-08-08T13:38:34;3.03;;;0.60;;
14118;SDS011;7138;49.246;9.100;2023-08-08T13:41:00;2.03;;;0.65;;
14118;SDS011;7138;49.246;9.100;2023-08-08T13:43:26;2.90;;;0.80;;
14118;SDS011;7138;49.246;9.100;2023-08-08T13:45:52;4.43;;;0.80;;
14118;SDS011;7138;49.246;9.100;2023-08-08T13:48:18;3.75;;;0.85;;
14118;SDS011;7138;49.246;9.100;2023-08-08T13:50:44;3.38;;;0.80;;
14118;SDS011;7138;49.246;9.100;2023-08-08T13:53:09;2.78;;;0.90;;
14118;SDS011;7138;49.246;9.100;2023-08-08T13:55:36;3.38;;;0.95;;
14118;SDS011;7138;49.246;9.100;2023-08-08T13:58:05;2.97;;;0.90;;
14118;SDS011;7138;49.246;9.100;2023-08-08T14:00:31;3.65;;;1.00;;
14118;SDS011;7138;49.246;9.100;2023-08-08T14:02:57;1.95;;;0.60;;
14118;SDS011;7138;49.246;9.100;2023-08-08T14:05:23;2.22;;;0.80;;
14118;SDS011;7138;49.246;9.100;2023-08-08T14:07:49;1.60;;;0.55;;
14118;SDS011;7138;49.246;9.100;2023-08-08T14:10:15;2.53;;;0.80;;
14118;SDS011;7138;49.246;9.100;2023-08-08T14:12:43;2.58;;;0.70;;
14118;SDS011;7138;49.246;9.100;2023-08-08T14:15:08;2.47;;;0.70;;
14118;SDS011;7138;49.246;9.100;2023-08-08T14:17:34;2.40;;;0.70;;
14118;SDS011;7138;49.246;9.100;2023-08-08T14:20:00;3.33;;;0.75;;
14118;SDS011;7138;49.246;9.100;2023-08-08T14:22:27;2.85;;;0.70;;
14118;SDS011;7138;49.246;9.100;2023-08-08T14:24:53;2.83;;;0.80;;
14118;SDS011;7138;49.246;9.100;2023-08-08T14:27:18;2.03;;;0.70;;
14118;SDS011;7138;49.246;9.100;2023-08-08T14:29:45;3.33;;;0.70;;
14118;SDS011;7138;49.246;9.100;2023-08-08T14:32:11;2.28;;;0.60;;
14118;SDS011;7138;49.246;9.100;2023-08-08T14:34:37;3.47;;;0.70;;
14118;SDS011;7138;49.246;9.100;2023-08-08T14:37:04;3.22;;;0.70;;
14118;SDS011;7138;49.246;9.100;2023-08-08T14:39:31;1.33;;;0.40;;
14118;SDS011;7138;49.246;9.100;2023-08-08T14:41:57;2.75;;;0.80;;
14118;SDS011;7138;49.246;9.100;2023-08-08T14:44:23;2.50;;;0.50;;
14118;SDS011;7138;49.246;9.100;2023-08-08T14:46:50;2.83;;;0.70;;
14118;SDS011;7138;49.246;9.100;2023-08-08T14:49:16;2.70;;;0.70;;
14118;SDS011;7138;49.246;9.100;2023-08-08T14:51:46;2.13;;;0.77;;
14118;SDS011;7138;49.246;9.100;2023-08-08T14:54:12;1.88;;;0.57;;
14118;SDS011;7138;49.246;9.100;2023-08-08T14:56:37;2.47;;;0.70;;
14118;SDS011;7138;49.246;9.100;2023-08-08T14:59:03;1.88;;;0.50;;